Archival Weather

Pocono Mountains Rgnl

Mount Pocono, Pennsylvania (KMPO)

Report from: Tuesday, May 21, 2024 7:53 AM EDT
Current time: Monday, July 22, 2024 7:23 AM EDT

Current weather – Weather history – Daily summaries
Weather forecast

Temperature18.3°C (64.9°F)
Dew point14.4°C (57.9°F)
Winds 8 kts (4.1 m/s, 9.2 mph) West (280°)
Visibility10 mi. (16.1 km)
Clouds Sky clear
Altimeter30.04 in.Hg (1017 mB)
Relative humidity78 %
Density altitude505 ft. (154 m)
Sea-level pressure101.7 kPa (1017 mB, 30.02 in.Hg)
Max temp last 6 hours18.3°C (64.9°F)
Min temp last 6 hours12.8°C (55.0°F)
Remarks Fully automated report
Automated weather observing station with precipitation discriminator
Pressure rising more quickly
Flight conditions Visual Meteorological Conditions
Raw dataKMPO 211153Z AUTO 28008KT 10SM CLR 18/14 A3004 RMK AO2 SLP165 T01830144 10183 20128 53012
An error has occurred. This application may no longer respond until reloaded. Reload 🗙